createdAt,value
2019-03-26T00:00:27.285Z,5.20
2019-03-26T00:02:57.201Z,6.53
2019-03-26T00:05:26.661Z,6.60
2019-03-26T00:07:56.101Z,5.67
2019-03-26T00:10:25.559Z,6.27
2019-03-26T00:12:55.004Z,5.80
2019-03-26T00:15:24.474Z,5.70
2019-03-26T00:17:53.920Z,6.50
2019-03-26T00:20:23.386Z,7.17
2019-03-26T00:22:52.834Z,6.23
2019-03-26T00:25:22.305Z,5.10
2019-03-26T00:27:51.742Z,6.47
2019-03-26T00:30:21.213Z,5.57
2019-03-26T00:32:53.616Z,5.13
2019-03-26T00:35:23.090Z,5.47
2019-03-26T00:37:52.530Z,5.07
2019-03-26T00:40:21.998Z,5.50
2019-03-26T00:42:51.446Z,5.40
2019-03-26T00:45:20.906Z,5.40
2019-03-26T00:47:50.350Z,4.70
2019-03-26T00:50:19.813Z,5.00
2019-03-26T00:52:49.256Z,5.03
2019-03-26T00:55:23.045Z,5.17
2019-03-26T00:57:49.779Z,5.13
2019-03-26T01:00:36.363Z,4.63
2019-03-26T01:03:06.242Z,4.87
2019-03-26T01:05:35.706Z,5.00
2019-03-26T01:08:05.318Z,4.90
2019-03-26T01:10:34.781Z,4.73
2019-03-26T01:13:04.461Z,5.00
2019-03-26T01:15:33.993Z,4.40
2019-03-26T01:18:03.867Z,5.03
2019-03-26T01:20:33.291Z,3.80
2019-03-26T01:23:02.730Z,4.37
2019-03-26T01:25:32.199Z,4.27
2019-03-26T01:28:01.637Z,4.33
2019-03-26T01:30:31.173Z,3.17
2019-03-26T01:33:01.695Z,3.90
2019-03-26T01:35:31.177Z,4.00
2019-03-26T01:38:00.625Z,3.37
2019-03-26T01:40:30.089Z,3.03
2019-03-26T01:42:59.531Z,3.43
2019-03-26T01:45:28.997Z,3.23
2019-03-26T01:47:58.437Z,3.63
2019-03-26T01:50:27.906Z,3.67
2019-03-26T01:52:57.351Z,3.43
2019-03-26T01:55:26.820Z,3.83
2019-03-26T01:57:56.261Z,3.50
2019-03-26T02:00:25.725Z,3.40
2019-03-26T02:02:55.162Z,4.80
2019-03-26T02:05:24.637Z,3.70
2019-03-26T02:07:54.081Z,3.93
2019-03-26T02:10:23.546Z,4.27
2019-03-26T02:12:52.989Z,3.73
2019-03-26T02:15:30.634Z,3.27
2019-03-26T02:18:00.319Z,4.47
2019-03-26T02:20:29.946Z,4.03
2019-03-26T02:22:59.538Z,3.97
2019-03-26T02:25:29.007Z,4.37
2019-03-26T02:27:58.449Z,3.60
2019-03-26T02:30:27.918Z,3.90
2019-03-26T02:32:57.357Z,3.43
2019-03-26T02:35:26.822Z,3.23
2019-03-26T02:37:56.266Z,4.63
2019-03-26T02:40:25.737Z,4.27
2019-03-26T02:42:56.263Z,4.03
2019-03-26T02:45:25.736Z,3.90
2019-03-26T02:47:55.185Z,3.47
2019-03-26T02:50:24.657Z,3.90
2019-03-26T02:52:54.089Z,3.03
2019-03-26T02:55:23.560Z,3.80
2019-03-26T02:57:53.132Z,3.47
2019-03-26T03:00:22.534Z,3.57
2019-03-26T03:02:51.979Z,4.10
2019-03-26T03:05:34.484Z,4.90
2019-03-26T03:07:52.508Z,2.87
2019-03-26T03:10:21.983Z,3.20
2019-03-26T03:12:51.426Z,3.03
2019-03-26T03:15:20.904Z,3.50
2019-03-26T03:17:50.347Z,3.30
2019-03-26T03:20:19.816Z,4.00
2019-03-26T03:22:49.280Z,4.70
2019-03-26T03:25:18.737Z,4.87
2019-03-26T03:27:48.289Z,3.30
2019-03-26T03:30:18.089Z,4.53
2019-03-26T03:32:47.536Z,4.67
2019-03-26T03:35:17.011Z,4.93
2019-03-26T03:37:46.444Z,5.87
2019-03-26T03:40:15.916Z,4.67
2019-03-26T03:42:46.433Z,4.43
2019-03-26T03:45:18.969Z,4.40
2019-03-26T03:47:48.554Z,4.83
2019-03-26T03:50:18.018Z,4.17
2019-03-26T03:52:48.106Z,4.93
2019-03-26T03:55:17.650Z,4.90
2019-03-26T03:57:52.524Z,4.63
2019-03-26T04:00:29.569Z,6.13
2019-03-26T04:02:59.010Z,4.87
2019-03-26T04:05:28.479Z,5.03
2019-03-26T04:07:57.918Z,6.70
2019-03-26T04:10:27.386Z,5.43
2019-03-26T04:12:56.853Z,6.03
2019-03-26T04:15:26.391Z,5.07
2019-03-26T04:17:55.974Z,5.57
2019-03-26T04:20:25.403Z,5.63
2019-03-26T04:22:54.842Z,5.97
2019-03-26T04:25:24.331Z,4.60
2019-03-26T04:27:54.034Z,4.60
2019-03-26T04:30:30.925Z,5.87
2019-03-26T04:33:00.430Z,4.57
2019-03-26T04:35:29.894Z,4.77
2019-03-26T04:37:59.404Z,5.20
2019-03-26T04:40:29.012Z,5.33
2019-03-26T04:42:58.681Z,4.20
2019-03-26T04:45:28.158Z,4.03
2019-03-26T04:47:57.605Z,4.77
2019-03-26T04:50:27.076Z,3.73
2019-03-26T04:52:56.516Z,4.10
2019-03-26T04:55:26.039Z,3.90
2019-03-26T04:57:55.478Z,4.03
2019-03-26T05:00:24.948Z,4.57
2019-03-26T05:02:54.424Z,5.00
2019-03-26T05:05:23.869Z,4.67
2019-03-26T05:07:54.466Z,3.53
2019-03-26T05:10:23.910Z,4.53
2019-03-26T05:12:53.378Z,4.10
2019-03-26T05:15:22.853Z,5.63
2019-03-26T05:17:52.341Z,4.50
2019-03-26T05:20:21.781Z,4.07
2019-03-26T05:22:54.759Z,5.03
2019-03-26T05:25:24.215Z,4.27
2019-03-26T05:27:53.754Z,4.37
2019-03-26T05:30:24.309Z,4.03
2019-03-26T05:32:53.787Z,3.70
2019-03-26T05:35:23.215Z,4.33
2019-03-26T05:37:52.681Z,4.03
2019-03-26T05:40:22.131Z,3.67
2019-03-26T05:42:51.622Z,3.10
2019-03-26T05:45:21.082Z,3.70
2019-03-26T05:47:50.547Z,4.57
2019-03-26T05:50:19.989Z,3.70
2019-03-26T05:52:49.462Z,3.63
2019-03-26T05:55:18.905Z,4.43
2019-03-26T05:57:48.378Z,3.77
2019-03-26T06:00:19.598Z,4.97
2019-03-26T06:02:49.085Z,4.17
2019-03-26T06:05:18.553Z,4.03
2019-03-26T06:07:48.019Z,3.43
2019-03-26T06:10:17.605Z,3.70
2019-03-26T06:12:50.101Z,3.47
2019-03-26T06:15:18.283Z,3.60
2019-03-26T06:17:47.742Z,3.43
2019-03-26T06:20:17.262Z,4.40
2019-03-26T06:22:46.747Z,3.00
2019-03-26T06:25:16.216Z,3.57
2019-03-26T06:27:45.698Z,3.07
2019-03-26T06:30:15.713Z,3.23
2019-03-26T06:32:45.169Z,3.00
2019-03-26T06:35:14.604Z,3.10
2019-03-26T06:37:44.103Z,2.60
2019-03-26T06:40:13.895Z,3.23
2019-03-26T06:42:43.391Z,2.77
2019-03-26T06:45:13.675Z,2.77
2019-03-26T06:47:43.137Z,2.70
2019-03-26T06:50:14.281Z,2.80
2019-03-26T06:52:43.745Z,3.73
2019-03-26T06:55:13.650Z,2.70
2019-03-26T06:57:43.115Z,2.57
2019-03-26T07:00:15.094Z,2.73
2019-03-26T07:02:44.810Z,3.37
2019-03-26T07:05:15.033Z,3.43
2019-03-26T07:07:44.507Z,3.00
2019-03-26T07:10:15.861Z,4.27
2019-03-26T07:12:45.334Z,3.40
2019-03-26T07:15:14.844Z,3.57
2019-03-26T07:17:44.346Z,2.90
2019-03-26T07:20:14.729Z,3.10
2019-03-26T07:22:44.206Z,3.57
2019-03-26T07:25:13.713Z,3.37
2019-03-26T07:27:43.210Z,3.40
2019-03-26T07:30:14.590Z,2.67
2019-03-26T07:32:44.063Z,4.80
2019-03-26T07:35:13.517Z,3.17
2019-03-26T07:37:45.364Z,2.73
2019-03-26T07:40:14.418Z,2.47
2019-03-26T07:42:43.905Z,2.80
2019-03-26T07:45:13.441Z,2.97
2019-03-26T07:47:42.903Z,2.80
2019-03-26T07:50:14.017Z,2.73
2019-03-26T07:52:43.430Z,3.27
2019-03-26T07:55:13.027Z,3.13
2019-03-26T07:57:42.499Z,2.77
2019-03-26T08:00:12.803Z,3.00
2019-03-26T08:02:42.262Z,3.00
2019-03-26T08:05:11.785Z,2.90
2019-03-26T08:07:41.279Z,3.27
2019-03-26T08:10:10.886Z,3.90
2019-03-26T08:12:40.401Z,2.77
2019-03-26T08:15:10.057Z,4.10
2019-03-26T08:17:39.470Z,3.20
2019-03-26T08:20:12.457Z,2.97
2019-03-26T08:22:40.592Z,2.90
2019-03-26T08:25:10.303Z,3.00
2019-03-26T08:27:39.742Z,2.87
2019-03-26T08:30:09.377Z,3.80
2019-03-26T08:32:38.827Z,3.30
2019-03-26T08:35:08.445Z,3.17
2019-03-26T08:37:37.897Z,2.47
2019-03-26T08:40:09.374Z,3.27
2019-03-26T08:42:38.821Z,3.17
2019-03-26T08:45:08.925Z,3.70
2019-03-26T08:47:38.403Z,3.17
2019-03-26T08:50:08.728Z,2.90
2019-03-26T08:52:38.174Z,3.80
2019-03-26T08:55:08.887Z,2.80
2019-03-26T08:57:38.325Z,3.63
2019-03-26T09:00:10.426Z,3.70
2019-03-26T09:02:40.038Z,3.33
2019-03-26T09:05:09.735Z,3.33
2019-03-26T09:07:39.178Z,2.80
2019-03-26T09:10:10.685Z,2.97
2019-03-26T09:12:40.142Z,3.27
2019-03-26T09:15:14.363Z,3.30
2019-03-26T09:17:44.782Z,2.23
2019-03-26T09:20:14.853Z,2.60
2019-03-26T09:22:44.316Z,2.53
2019-03-26T09:25:14.263Z,2.00
2019-03-26T09:27:43.736Z,3.10
2019-03-26T09:30:14.542Z,3.47
2019-03-26T09:32:44.012Z,3.83
2019-03-26T09:35:13.820Z,2.80
2019-03-26T09:37:43.268Z,3.03
2019-03-26T09:40:13.058Z,2.80
2019-03-26T09:42:42.518Z,3.03
2019-03-26T09:45:12.229Z,3.00
2019-03-26T09:47:41.707Z,3.73
2019-03-26T09:50:11.879Z,3.27
2019-03-26T09:52:41.376Z,3.57
2019-03-26T09:55:10.979Z,3.53
2019-03-26T09:57:40.446Z,2.60
2019-03-26T10:00:11.333Z,3.10
2019-03-26T10:02:43.099Z,3.27
2019-03-26T10:05:12.264Z,3.37
2019-03-26T10:07:41.747Z,3.67
2019-03-26T10:10:12.226Z,2.67
2019-03-26T10:12:41.681Z,3.20
2019-03-26T10:15:11.566Z,3.37
2019-03-26T10:17:41.037Z,3.17
2019-03-26T10:20:10.754Z,2.63
2019-03-26T10:22:40.318Z,3.03
2019-03-26T10:25:11.232Z,2.90
2019-03-26T10:27:41.063Z,3.90
2019-03-26T10:30:15.560Z,2.97
2019-03-26T10:32:45.089Z,3.00
2019-03-26T10:35:14.662Z,3.00
2019-03-26T10:37:44.134Z,3.37
2019-03-26T10:40:16.650Z,3.63
2019-03-26T10:42:46.137Z,3.33
2019-03-26T10:45:15.642Z,3.17
2019-03-26T10:47:45.114Z,3.57
2019-03-26T10:50:14.554Z,3.63
2019-03-26T10:52:44.025Z,2.90
2019-03-26T10:58:15.535Z,3.13
2019-03-26T11:00:45.154Z,3.43
2019-03-26T11:03:14.707Z,3.13
2019-03-26T11:05:44.171Z,3.33
2019-03-26T11:08:13.710Z,2.90
2019-03-26T11:10:43.159Z,3.13
2019-03-26T11:13:12.708Z,3.70
2019-03-26T11:15:42.184Z,2.97
2019-03-26T11:18:11.678Z,2.70
2019-03-26T11:20:41.131Z,2.33
2019-03-26T11:23:10.695Z,2.83
2019-03-26T11:25:40.214Z,2.63
2019-03-26T11:28:09.985Z,2.40
2019-03-26T11:30:39.559Z,2.40
2019-03-26T11:33:09.055Z,2.60
2019-03-26T11:35:38.523Z,3.03
2019-03-26T11:38:07.995Z,3.30
2019-03-26T11:40:37.485Z,3.33
2019-03-26T11:43:06.942Z,3.00
2019-03-26T11:45:36.414Z,2.93
2019-03-26T11:48:05.888Z,3.17
2019-03-26T11:50:35.335Z,2.83
2019-03-26T11:53:04.885Z,2.77
2019-03-26T11:55:34.340Z,3.53
2019-03-26T11:58:03.883Z,2.73
2019-03-26T12:00:34.995Z,2.10
2019-03-26T12:03:04.604Z,2.40
2019-03-26T12:05:34.077Z,1.70
2019-03-26T12:08:03.549Z,2.60
2019-03-26T12:10:33.002Z,2.53
2019-03-26T12:13:02.474Z,2.20
2019-03-26T12:15:31.927Z,2.67
2019-03-26T12:18:01.403Z,2.40
2019-03-26T12:20:30.847Z,2.30
2019-03-26T12:23:00.324Z,2.60
2019-03-26T12:25:29.772Z,2.50
2019-03-26T12:27:59.244Z,2.50
2019-03-26T12:30:33.614Z,2.83
2019-03-26T12:33:03.147Z,2.80
2019-03-26T12:35:32.716Z,2.87
2019-03-26T12:38:05.267Z,3.30
2019-03-26T12:40:34.738Z,3.93
2019-03-26T12:43:04.284Z,2.77
2019-03-26T12:45:33.757Z,2.83
2019-03-26T12:48:03.248Z,2.97
2019-03-26T12:50:32.700Z,2.87
2019-03-26T12:53:02.177Z,3.60
2019-03-26T12:55:31.615Z,3.80
2019-03-26T12:58:01.092Z,2.77
2019-03-26T13:00:33.918Z,2.57
2019-03-26T13:03:03.430Z,2.80
2019-03-26T13:05:32.906Z,2.57
2019-03-26T13:08:02.547Z,2.80
2019-03-26T13:10:32.023Z,2.37
2019-03-26T13:13:01.479Z,2.10
2019-03-26T13:15:30.958Z,2.23
2019-03-26T13:18:00.408Z,2.00
2019-03-26T13:20:29.885Z,2.60
2019-03-26T13:22:59.337Z,2.70
2019-03-26T13:25:28.899Z,2.20
2019-03-26T13:27:59.323Z,2.93
2019-03-26T13:30:28.791Z,2.83
2019-03-26T13:32:58.240Z,2.53
2019-03-26T13:35:27.715Z,2.80
2019-03-26T13:37:57.168Z,2.50
2019-03-26T13:40:27.858Z,3.07
2019-03-26T13:42:57.571Z,3.13
2019-03-26T13:45:27.114Z,2.47
2019-03-26T13:47:56.569Z,2.00
2019-03-26T13:50:26.036Z,2.37
2019-03-26T13:52:56.865Z,2.10
2019-03-26T13:55:26.354Z,2.70
2019-03-26T13:57:55.819Z,3.20
2019-03-26T14:00:36.758Z,3.13
2019-03-26T14:03:06.548Z,2.80
2019-03-26T14:05:36.019Z,3.20
2019-03-26T14:08:05.495Z,3.43
2019-03-26T14:10:40.822Z,3.20
2019-03-26T14:13:06.063Z,3.30
2019-03-26T14:15:35.612Z,2.43
2019-03-26T14:18:05.054Z,2.77
2019-03-26T14:20:34.530Z,3.97
2019-03-26T14:23:04.119Z,2.90
2019-03-26T14:25:33.623Z,2.33
2019-03-26T14:28:03.142Z,1.90
2019-03-26T14:30:37.588Z,2.07
2019-03-26T14:33:08.468Z,2.43
2019-03-26T14:35:37.971Z,2.53
2019-03-26T14:38:07.476Z,2.10
2019-03-26T14:40:36.946Z,2.50
2019-03-26T14:43:06.535Z,2.67
2019-03-26T14:45:36.174Z,2.07
2019-03-26T14:48:05.861Z,2.40
2019-03-26T14:50:35.335Z,2.30
2019-03-26T14:53:04.886Z,2.27
2019-03-26T14:55:34.428Z,2.17
2019-03-26T14:58:05.188Z,1.50
2019-03-26T15:00:34.668Z,1.70
2019-03-26T15:03:04.257Z,1.63
2019-03-26T15:05:33.826Z,1.60
2019-03-26T15:08:03.263Z,1.97
2019-03-26T15:10:32.739Z,1.77
2019-03-26T15:13:03.273Z,2.03
2019-03-26T15:15:32.747Z,2.60
2019-03-26T15:18:02.199Z,2.87
2019-03-26T15:20:31.703Z,2.73
2019-03-26T15:23:01.169Z,2.50
2019-03-26T15:25:30.647Z,2.93
2019-03-26T15:28:00.095Z,3.00
2019-03-26T15:30:29.579Z,2.40
2019-03-26T15:32:59.043Z,3.23
2019-03-26T15:35:28.525Z,3.13
2019-03-26T15:37:58.011Z,2.77
2019-03-26T15:40:27.488Z,2.70
2019-03-26T15:42:56.973Z,2.50
2019-03-26T15:45:27.550Z,2.67
2019-03-26T15:47:56.925Z,2.57
2019-03-26T15:50:44.354Z,2.60
2019-03-26T15:53:14.545Z,2.63
2019-03-26T15:55:44.463Z,2.50
2019-03-26T15:58:13.930Z,2.67
2019-03-26T16:00:43.538Z,2.80
2019-03-26T16:03:13.010Z,3.30
2019-03-26T16:05:44.120Z,3.20
2019-03-26T16:08:13.614Z,3.30
2019-03-26T16:10:43.051Z,2.70
2019-03-26T16:13:12.549Z,3.77
2019-03-26T16:15:44.491Z,2.90
2019-03-26T16:18:13.064Z,3.10
2019-03-26T16:20:42.535Z,3.40
2019-03-26T16:23:11.996Z,3.40
2019-03-26T16:25:41.459Z,4.80
2019-03-26T16:28:10.908Z,3.50
2019-03-26T16:30:40.379Z,3.90
2019-03-26T16:33:09.835Z,6.07
2019-03-26T16:35:40.344Z,3.40
2019-03-26T16:38:09.987Z,4.00
2019-03-26T16:40:39.468Z,3.10
2019-03-26T16:43:08.947Z,3.10
2019-03-26T16:45:38.414Z,4.00
2019-03-26T16:48:07.911Z,3.80
2019-03-26T16:50:37.363Z,3.90
2019-03-26T16:53:07.835Z,4.83
2019-03-26T16:55:37.308Z,3.83
2019-03-26T16:58:06.777Z,4.00
2019-03-26T17:00:36.414Z,4.57
2019-03-26T17:03:06.273Z,4.23
2019-03-26T17:05:35.740Z,4.40
2019-03-26T17:08:06.347Z,4.20
2019-03-26T17:10:35.902Z,3.73
2019-03-26T17:13:05.562Z,3.83
2019-03-26T17:15:35.029Z,3.77
2019-03-26T17:18:04.563Z,4.07
2019-03-26T17:20:34.004Z,3.83
2019-03-26T17:23:03.475Z,4.93
2019-03-26T17:25:32.938Z,4.17
2019-03-26T17:28:02.508Z,3.60
2019-03-26T17:30:31.940Z,4.50
2019-03-26T17:33:01.433Z,3.97
2019-03-26T17:35:30.888Z,3.77
2019-03-26T17:38:00.555Z,4.47
2019-03-26T17:40:30.006Z,4.33
2019-03-26T17:42:59.470Z,3.83
2019-03-26T17:45:28.938Z,4.03
2019-03-26T17:47:58.402Z,3.40
2019-03-26T17:50:28.818Z,3.60
2019-03-26T17:52:58.291Z,3.93
2019-03-26T17:55:27.747Z,3.93
2019-03-26T17:57:58.277Z,4.50
2019-03-26T18:00:39.783Z,3.83
2019-03-26T18:03:09.363Z,5.23
2019-03-26T18:05:38.905Z,3.83
2019-03-26T18:08:08.507Z,4.37
2019-03-26T18:10:37.958Z,4.73
2019-03-26T18:13:07.409Z,5.13
2019-03-26T18:15:36.951Z,5.30
2019-03-26T18:18:06.422Z,6.20
2019-03-26T18:20:35.863Z,5.93
2019-03-26T18:23:05.357Z,6.70
2019-03-26T18:25:34.793Z,7.33
2019-03-26T18:28:04.427Z,5.80
2019-03-26T18:30:33.880Z,5.83
2019-03-26T18:33:03.366Z,6.67
2019-03-26T18:35:32.827Z,6.33
2019-03-26T18:38:02.286Z,6.60
2019-03-26T18:40:31.793Z,5.67
2019-03-26T18:43:01.285Z,5.20
2019-03-26T18:45:30.754Z,4.60
2019-03-26T18:48:00.219Z,4.60
2019-03-26T18:50:29.657Z,4.63
2019-03-26T18:52:59.127Z,4.63
2019-03-26T18:55:28.569Z,4.70
2019-03-26T18:57:58.103Z,3.60
2019-03-26T19:00:35.136Z,3.90
2019-03-26T19:03:05.017Z,3.87
2019-03-26T19:05:34.939Z,3.87
2019-03-26T19:08:05.385Z,4.97
2019-03-26T19:10:35.869Z,4.13
2019-03-26T19:13:18.842Z,4.13
2019-03-26T19:15:37.068Z,3.60
2019-03-26T19:18:06.513Z,4.10
2019-03-26T19:20:36.077Z,3.93
2019-03-26T19:23:05.509Z,3.63
2019-03-26T19:25:34.973Z,3.50
2019-03-26T19:28:04.417Z,4.97
2019-03-26T19:30:33.887Z,6.23
2019-03-26T19:33:03.354Z,3.47
2019-03-26T19:35:32.852Z,3.90
2019-03-26T19:38:02.373Z,4.23
2019-03-26T19:40:31.849Z,3.33
2019-03-26T19:43:10.641Z,4.07
2019-03-26T19:45:32.453Z,3.77
2019-03-26T19:48:01.965Z,3.50
2019-03-26T19:50:31.397Z,3.60
2019-03-26T19:53:00.885Z,3.60
2019-03-26T19:55:30.326Z,4.60
2019-03-26T19:57:59.789Z,4.33
2019-03-26T20:00:29.241Z,3.87
2019-03-26T20:02:58.713Z,4.03
2019-03-26T20:05:28.153Z,3.60
2019-03-26T20:07:57.646Z,4.10
2019-03-26T20:10:27.125Z,4.23
2019-03-26T20:12:56.673Z,4.57
2019-03-26T20:15:26.256Z,4.20
2019-03-26T20:17:55.730Z,4.60
2019-03-26T20:20:25.242Z,5.03
2019-03-26T20:22:54.719Z,4.63
2019-03-26T20:25:24.158Z,4.93
2019-03-26T20:27:53.623Z,3.87
2019-03-26T20:30:23.209Z,4.53
2019-03-26T20:32:52.678Z,4.90
2019-03-26T20:35:22.122Z,5.00
2019-03-26T20:37:51.663Z,4.73
2019-03-26T20:40:21.179Z,4.63
2019-03-26T20:42:50.646Z,4.40
2019-03-26T20:45:20.399Z,4.73
2019-03-26T20:47:49.961Z,4.10
2019-03-26T20:50:19.750Z,4.37
2019-03-26T20:52:49.299Z,5.00
2019-03-26T20:55:21.817Z,4.97
2019-03-26T20:57:51.431Z,4.57
2019-03-26T21:00:26.480Z,5.20
2019-03-26T21:02:55.973Z,5.90
2019-03-26T21:05:25.427Z,4.63
2019-03-26T21:07:54.906Z,4.53
2019-03-26T21:10:24.342Z,4.43
2019-03-26T21:12:53.839Z,4.43
2019-03-26T21:15:23.351Z,4.40
2019-03-26T21:17:52.844Z,3.97
2019-03-26T21:20:22.296Z,4.50
2019-03-26T21:22:51.789Z,4.20
2019-03-26T21:25:21.229Z,4.60
2019-03-26T21:27:50.721Z,4.60
2019-03-26T21:30:21.201Z,5.03
2019-03-26T21:32:50.742Z,4.73
2019-03-26T21:35:20.185Z,5.23
2019-03-26T21:37:49.677Z,4.97
2019-03-26T21:40:20.405Z,4.40
2019-03-26T21:42:49.886Z,4.83
2019-03-26T21:45:22.426Z,4.77
2019-03-26T21:47:51.909Z,5.00
2019-03-26T21:50:21.355Z,5.00
2019-03-26T21:52:50.840Z,5.93
2019-03-26T21:55:20.305Z,6.00
2019-03-26T21:57:49.773Z,4.80
2019-03-26T22:00:19.330Z,5.70
2019-03-26T22:02:48.769Z,4.73
2019-03-26T22:05:18.257Z,5.77
2019-03-26T22:07:47.689Z,5.17
2019-03-26T22:10:17.225Z,6.57
2019-03-26T22:12:46.701Z,6.73
2019-03-26T22:15:16.262Z,7.03
2019-03-26T22:17:45.725Z,7.13
2019-03-26T22:20:15.821Z,7.00
2019-03-26T22:22:45.298Z,7.63
2019-03-26T22:25:14.813Z,9.17
2019-03-26T22:27:44.263Z,8.77
2019-03-26T22:30:14.357Z,8.47
2019-03-26T22:32:43.821Z,8.87
2019-03-26T22:35:13.373Z,9.50
2019-03-26T22:37:42.818Z,9.93
2019-03-26T22:40:12.622Z,10.60
2019-03-26T22:42:42.069Z,11.03
2019-03-26T22:45:12.098Z,12.03
2019-03-26T22:47:41.542Z,11.87
2019-03-26T22:50:11.554Z,14.30
2019-03-26T22:52:41.001Z,13.27
2019-03-26T22:55:10.925Z,13.73
2019-03-26T22:57:40.446Z,13.27
2019-03-26T23:00:21.327Z,12.97
2019-03-26T23:02:52.420Z,14.60
2019-03-26T23:05:21.891Z,13.77
2019-03-26T23:07:51.333Z,13.77
2019-03-26T23:10:21.043Z,12.93
2019-03-26T23:12:50.562Z,12.87
2019-03-26T23:15:26.376Z,13.43
2019-03-26T23:17:55.826Z,13.83
2019-03-26T23:20:25.289Z,14.13
2019-03-26T23:22:54.742Z,14.23
2019-03-26T23:25:24.218Z,13.23
2019-03-26T23:27:53.739Z,13.67
2019-03-26T23:30:23.285Z,14.00
2019-03-26T23:32:52.730Z,14.07
2019-03-26T23:35:22.308Z,12.57
2019-03-26T23:37:51.760Z,13.43
2019-03-26T23:40:21.219Z,13.23
2019-03-26T23:42:50.667Z,12.80
2019-03-26T23:45:20.157Z,12.13
2019-03-26T23:47:49.598Z,12.73
2019-03-26T23:50:19.133Z,13.00
2019-03-26T23:52:48.577Z,13.33
2019-03-26T23:55:18.155Z,12.70
2019-03-26T23:57:47.661Z,12.20
